Time;durP1;ratioP1;P1;durP2;ratioP2;P2;SDS_P1;SDS_P2;PMS_P1;PMS_P2;Temp;Humidity;BMP_temperature;BMP_pressure;BME280_temperature;BME280_humidity;BME280_pressure;Samples;Min_cycle;Max_cycle;Signal;HPM_P1;HPM_P2
2022/11/22 00:00:38;;;;;;;12.43;8.40;;;2.10;99.90;;;;;;5055975;28;20201;-72
2022/11/22 00:03:05;;;;;;;14.73;8.37;;;2.20;99.90;;;;;;5055722;28;20201;-72
2022/11/22 00:05:32;;;;;;;10.37;8.37;;;2.10;99.90;;;;;;5055829;28;20205;-72
2022/11/22 00:07:59;;;;;;;12.63;8.00;;;2.10;99.90;;;;;;5055371;28;20283;-72
2022/11/22 00:10:27;;;;;;;13.50;8.60;;;2.20;99.90;;;;;;5055498;28;20198;-72
2022/11/22 00:12:54;;;;;;;11.77;7.40;;;2.20;99.90;;;;;;5055382;28;20205;-72
2022/11/22 00:15:21;;;;;;;10.90;7.40;;;2.20;99.90;;;;;;5055349;28;20193;-72
2022/11/22 00:17:47;;;;;;;13.53;6.90;;;2.20;99.90;;;;;;5054917;28;20193;-72
2022/11/22 00:20:14;;;;;;;9.43;6.13;;;2.20;99.90;;;;;;5055209;28;20201;-72
2022/11/22 00:22:41;;;;;;;10.23;5.93;;;2.30;99.90;;;;;;5055096;28;20228;-72
2022/11/22 00:25:08;;;;;;;11.10;5.77;;;2.30;99.90;;;;;;5055186;28;20260;-72
2022/11/22 00:27:36;;;;;;;7.17;5.40;;;2.40;99.90;;;;;;5055093;28;20201;-72
2022/11/22 00:30:04;;;;;;;7.80;5.70;;;2.40;99.90;;;;;;5054728;28;20217;-72
2022/11/22 00:32:31;;;;;;;8.90;5.53;;;2.40;99.90;;;;;;5054698;28;20206;-71
2022/11/22 00:34:57;;;;;;;12.33;5.40;;;2.50;99.90;;;;;;5054752;28;20681;-72
2022/11/22 00:37:24;;;;;;;9.93;5.40;;;2.50;99.90;;;;;;5055050;28;20742;-72
2022/11/22 00:39:51;;;;;;;11.67;4.97;;;2.50;99.90;;;;;;5062537;28;20197;-75
2022/11/22 00:42:17;;;;;;;8.87;4.87;;;2.40;99.90;;;;;;5061516;28;20202;-72
2022/11/22 00:44:45;;;;;;;7.77;5.07;;;2.50;99.90;;;;;;5062711;28;20279;-72
2022/11/22 00:47:12;;;;;;;6.60;4.63;;;2.50;99.90;;;;;;5057126;28;20194;-72
2022/11/22 00:49:38;;;;;;;6.10;4.33;;;2.40;99.90;;;;;;5053822;28;20287;-72
2022/11/22 00:52:05;;;;;;;8.97;4.50;;;2.40;99.90;;;;;;5054371;28;20197;-72
2022/11/22 00:54:32;;;;;;;5.73;3.60;;;2.40;99.90;;;;;;5054324;28;20275;-72
2022/11/22 00:56:58;;;;;;;5.40;3.67;;;2.40;99.90;;;;;;5054270;28;20201;-72
2022/11/22 00:59:25;;;;;;;7.63;3.70;;;2.50;99.90;;;;;;5053914;28;20201;-72
2022/11/22 01:01:53;;;;;;;6.23;3.63;;;2.50;99.90;;;;;;5053862;28;20723;-72
2022/11/22 01:04:20;;;;;;;4.87;3.70;;;2.50;99.90;;;;;;5054240;28;20198;-72
2022/11/22 01:06:46;;;;;;;5.87;3.47;;;2.50;99.90;;;;;;5054085;28;20232;-72
2022/11/22 01:09:18;;;;;;;5.53;3.70;;;2.50;99.90;;;;;;5053862;28;20684;-72
2022/11/22 01:11:45;;;;;;;4.93;3.60;;;2.60;99.90;;;;;;5053904;28;20568;-72
2022/11/22 01:14:11;;;;;;;5.23;3.50;;;2.60;99.90;;;;;;5053813;28;20205;-72
2022/11/22 01:16:38;;;;;;;6.80;3.60;;;2.50;99.90;;;;;;5053746;28;20529;-72
2022/11/22 01:19:06;;;;;;;5.83;3.60;;;2.50;99.90;;;;;;5053774;28;20715;-72
2022/11/22 01:21:33;;;;;;;3.90;3.53;;;2.50;99.90;;;;;;5054052;28;20197;-71
2022/11/22 01:24:00;;;;;;;4.43;3.33;;;2.50;99.90;;;;;;5053717;28;20244;-72
2022/11/22 01:26:26;;;;;;;5.13;3.60;;;2.60;99.90;;;;;;5053820;28;20653;-71
2022/11/22 01:28:53;;;;;;;6.30;3.80;;;2.70;99.90;;;;;;5053665;28;20279;-71
2022/11/22 01:31:20;;;;;;;6.20;3.87;;;2.70;99.90;;;;;;5053590;28;20546;-71
2022/11/22 01:33:46;;;;;;;6.87;3.90;;;2.70;99.90;;;;;;5053534;28;20201;-71
2022/11/22 01:36:14;;;;;;;3.57;3.10;;;2.80;99.90;;;;;;5053556;28;20201;-71
2022/11/22 01:38:41;;;;;;;4.20;3.37;;;2.70;99.90;;;;;;5053435;28;20205;-71
2022/11/22 01:41:07;;;;;;;5.90;3.57;;;2.80;99.90;;;;;;5053167;28;20205;-71
2022/11/22 01:43:34;;;;;;;6.00;4.00;;;2.70;99.90;;;;;;5053470;28;20251;-71
2022/11/22 01:46:02;;;;;;;4.73;3.47;;;2.70;99.90;;;;;;5053380;28;20255;-71
2022/11/22 01:48:35;;;;;;;5.73;3.83;;;2.70;99.90;;;;;;5053288;28;20272;-71
2022/11/22 01:51:09;;;;;;;7.13;3.63;;;2.60;99.90;;;;;;5053381;28;20201;-71
2022/11/22 01:53:39;;;;;;;5.07;3.23;;;2.60;99.90;;;;;;5053222;28;20198;-71
2022/11/22 01:56:11;;;;;;;5.37;3.50;;;2.70;99.90;;;;;;5053509;28;20201;-71
2022/11/22 01:58:41;;;;;;;5.43;3.77;;;2.80;99.90;;;;;;5053293;28;20198;-71
2022/11/22 02:01:08;;;;;;;5.17;3.20;;;2.80;99.90;;;;;;5053031;28;20197;-72
2022/11/22 02:03:38;;;;;;;4.57;3.03;;;2.90;99.90;;;;;;5053137;28;20201;-71
2022/11/22 02:06:06;;;;;;;5.27;3.30;;;3.00;99.90;;;;;;5053054;28;20202;-71
2022/11/22 02:08:38;;;;;;;3.70;3.13;;;3.00;99.90;;;;;;5052953;28;20234;-71
2022/11/22 02:11:07;;;;;;;4.23;3.47;;;2.90;99.90;;;;;;5053155;28;20607;-71
2022/11/22 02:13:38;;;;;;;4.27;3.33;;;2.90;99.90;;;;;;5053233;28;20607;-71
2022/11/22 02:16:06;;;;;;;5.90;3.43;;;2.90;99.90;;;;;;5052769;28;20688;-72
2022/11/22 02:18:34;;;;;;;3.87;3.20;;;2.80;99.90;;;;;;5052788;28;20256;-72
2022/11/22 02:21:02;;;;;;;5.27;3.60;;;2.80;99.90;;;;;;5053386;28;20202;-71
2022/11/22 02:23:35;;;;;;;6.67;3.33;;;2.80;99.90;;;;;;5053285;28;20239;-71
2022/11/22 02:26:03;;;;;;;5.03;3.70;;;2.80;99.90;;;;;;5052898;28;20233;-71
2022/11/22 02:28:32;;;;;;;5.00;3.87;;;2.80;99.90;;;;;;5052813;28;20201;-71
2022/11/22 02:30:58;;;;;;;5.00;3.17;;;2.90;99.90;;;;;;5052723;28;20648;-72
2022/11/22 02:33:25;;;;;;;5.73;3.60;;;2.90;99.90;;;;;;5052740;28;20255;-72
2022/11/22 02:35:52;;;;;;;4.80;3.13;;;3.00;99.90;;;;;;5052707;28;20660;-72
2022/11/22 02:38:23;;;;;;;4.10;3.40;;;2.90;99.90;;;;;;5052873;28;20201;-72
2022/11/22 02:40:54;;;;;;;5.53;3.43;;;2.90;99.90;;;;;;5052964;28;20204;-72
2022/11/22 02:43:25;;;;;;;5.47;3.63;;;3.00;99.90;;;;;;5052839;28;20198;-72
2022/11/22 02:45:52;;;;;;;6.00;3.40;;;3.00;99.90;;;;;;5052613;28;20651;-72
2022/11/22 02:48:19;;;;;;;7.20;3.67;;;3.00;99.90;;;;;;5052687;28;20711;-72
2022/11/22 02:50:46;;;;;;;5.07;3.50;;;3.10;99.90;;;;;;5052689;28;20291;-72
2022/11/22 02:53:13;;;;;;;5.63;3.60;;;3.10;99.90;;;;;;5053113;28;20228;-72
2022/11/22 02:55:40;;;;;;;5.00;3.40;;;3.10;99.90;;;;;;5052725;28;20251;-71
2022/11/22 02:58:07;;;;;;;4.73;3.40;;;3.10;99.90;;;;;;5052340;28;20198;-71
2022/11/22 03:00:37;;;;;;;5.57;3.30;;;3.10;99.90;;;;;;5052695;28;20194;-72
2022/11/22 03:03:04;;;;;;;6.57;3.80;;;3.10;99.90;;;;;;5052634;28;20285;-72
2022/11/22 03:05:31;;;;;;;3.97;3.43;;;3.10;99.90;;;;;;5052298;28;20271;-71
2022/11/22 03:07:57;;;;;;;7.27;3.87;;;3.10;99.90;;;;;;5052230;28;20284;-71
2022/11/22 03:10:24;;;;;;;4.47;3.60;;;3.10;99.90;;;;;;5052337;28;20229;-71
2022/11/22 03:12:51;;;;;;;5.20;3.70;;;3.10;99.90;;;;;;5053498;28;20595;-71
2022/11/22 03:15:18;;;;;;;3.93;3.50;;;3.10;99.90;;;;;;5056165;28;20198;-71
2022/11/22 03:17:46;;;;;;;3.83;3.10;;;3.10;99.90;;;;;;5055909;28;20201;-71
2022/11/22 03:20:13;;;;;;;3.90;3.30;;;3.10;99.90;;;;;;5055825;28;20247;-71
2022/11/22 03:22:39;;;;;;;5.03;3.53;;;3.10;99.90;;;;;;5055852;28;20195;-71
2022/11/22 03:25:07;;;;;;;7.80;4.20;;;3.10;99.90;;;;;;5055589;28;20207;-71
2022/11/22 03:27:33;;;;;;;6.33;4.23;;;3.20;99.90;;;;;;5055609;28;20251;-72
2022/11/22 03:30:00;;;;;;;6.23;4.77;;;3.20;99.90;;;;;;5055416;28;20701;-71
2022/11/22 03:32:27;;;;;;;6.87;4.53;;;3.20;99.90;;;;;;5055451;28;20537;-71
2022/11/22 03:34:55;;;;;;;7.57;4.50;;;3.20;99.90;;;;;;5055487;28;20248;-70
2022/11/22 03:37:21;;;;;;;7.30;4.10;;;3.20;99.90;;;;;;5055461;28;20211;-71
2022/11/22 03:39:48;;;;;;;7.60;3.87;;;3.20;99.90;;;;;;5055365;28;20202;-71
2022/11/22 03:42:15;;;;;;;6.43;4.60;;;3.30;99.90;;;;;;5055532;28;20202;-71
2022/11/22 03:44:41;;;;;;;7.77;4.10;;;3.30;99.90;;;;;;5055502;28;20198;-71
2022/11/22 03:47:08;;;;;;;4.67;4.20;;;3.40;99.90;;;;;;5055138;28;20198;-71
2022/11/22 03:49:34;;;;;;;6.17;4.70;;;3.30;99.90;;;;;;5054971;28;20628;-71
2022/11/22 03:52:03;;;;;;;4.60;3.93;;;3.40;99.90;;;;;;5055037;28;20206;-71
2022/11/22 03:54:29;;;;;;;7.57;4.47;;;3.40;99.90;;;;;;5054664;28;20621;-71
2022/11/22 03:56:56;;;;;;;7.23;4.37;;;3.40;99.90;;;;;;5054951;28;20209;-71
2022/11/22 03:59:22;;;;;;;5.37;4.60;;;3.40;99.90;;;;;;5054888;28;20207;-72
2022/11/22 04:01:49;;;;;;;7.07;4.40;;;3.40;99.90;;;;;;5055121;28;20200;-71
2022/11/22 04:04:16;;;;;;;6.03;4.37;;;3.50;99.90;;;;;;5055184;28;20215;-71
2022/11/22 04:06:43;;;;;;;5.90;4.53;;;3.50;99.90;;;;;;5055330;28;20253;-71
2022/11/22 04:09:11;;;;;;;7.67;4.60;;;3.50;99.90;;;;;;5054851;28;20243;-71
2022/11/22 04:11:37;;;;;;;8.10;4.30;;;3.50;99.90;;;;;;5055053;28;20657;-71
2022/11/22 04:16:48;;;;;;;7.17;4.97;;;3.60;99.90;;;;;;5055323;28;20197;-72
2022/11/22 04:19:15;;;;;;;7.20;4.90;;;3.60;99.90;;;;;;5055208;28;20257;-71
2022/11/22 04:21:41;;;;;;;9.30;7.03;;;3.60;99.90;;;;;;5054972;28;20606;-71
2022/11/22 04:26:55;;;;;;;6.83;4.80;;;3.70;99.90;;;;;;5055388;28;20205;-71
2022/11/22 04:29:22;;;;;;;8.87;5.40;;;3.70;99.90;;;;;;5054900;28;20352;-72
2022/11/22 04:34:35;;;;;;;8.07;4.90;;;3.80;99.90;;;;;;5055489;28;20193;-71
2022/11/22 04:37:02;;;;;;;55.30;34.17;;;3.80;99.90;;;;;;5055025;28;20246;-71
2022/11/22 04:39:29;;;;;;;8.27;6.33;;;3.80;99.90;;;;;;5054888;28;20207;-73
2022/11/22 04:44:40;;;;;;;15.03;8.77;;;3.80;99.90;;;;;;5055426;28;20198;-72
2022/11/22 04:47:07;;;;;;;7.33;5.07;;;3.80;99.90;;;;;;5054615;28;20665;-72
2022/11/22 04:49:34;;;;;;;8.97;5.00;;;3.90;99.90;;;;;;5054913;28;20230;-72
2022/11/22 04:54:45;;;;;;;9.50;5.03;;;3.90;99.90;;;;;;5054693;28;20197;-72
2022/11/22 04:57:13;;;;;;;9.30;5.00;;;4.00;99.90;;;;;;5054008;28;20197;-72
2022/11/22 04:59:40;;;;;;;9.80;4.97;;;3.90;99.90;;;;;;5054126;28;20207;-72
2022/11/22 05:02:06;;;;;;;12.20;5.03;;;3.90;99.90;;;;;;5053870;28;20251;-72
2022/11/22 05:04:33;;;;;;;6.60;5.47;;;3.90;99.90;;;;;;5054034;28;20257;-72
2022/11/22 05:07:00;;;;;;;7.70;5.37;;;3.80;99.90;;;;;;5053797;28;20211;-71
2022/11/22 05:09:27;;;;;;;9.60;5.80;;;3.80;99.90;;;;;;5053791;28;20695;-71
2022/11/22 05:11:53;;;;;;;9.17;5.90;;;3.80;99.90;;;;;;5054860;28;20260;-72
2022/11/22 05:14:21;;;;;;;10.60;5.67;;;3.70;99.90;;;;;;5054726;28;20198;-71
2022/11/22 05:16:48;;;;;;;7.70;5.70;;;3.60;99.90;;;;;;5054696;28;20201;-72
2022/11/22 05:19:14;;;;;;;9.93;5.70;;;3.50;99.90;;;;;;5055570;28;20247;-72
2022/11/22 05:21:41;;;;;;;8.33;5.60;;;3.50;99.90;;;;;;5054680;28;20224;-72
2022/11/22 05:24:07;;;;;;;9.00;5.77;;;3.60;99.90;;;;;;5054183;28;20201;-72
2022/11/22 05:26:35;;;;;;;9.00;6.17;;;3.70;99.90;;;;;;5055316;28;20197;-72
2022/11/22 05:29:05;;;;;;;9.73;5.87;;;3.80;99.90;;;;;;5055734;28;20596;-72
2022/11/22 05:31:34;;;;;;;14.43;7.20;;;4.00;99.90;;;;;;5055072;28;20254;-72
2022/11/22 05:34:00;;;;;;;8.27;6.37;;;4.00;99.90;;;;;;5053279;28;20210;-73
2022/11/22 05:36:27;;;;;;;12.80;6.07;;;3.90;99.90;;;;;;5052506;28;20208;-72
2022/11/22 05:38:54;;;;;;;8.43;5.90;;;3.90;99.90;;;;;;5053326;28;20220;-72
2022/11/22 05:41:21;;;;;;;13.43;6.80;;;3.90;99.90;;;;;;5053116;28;20206;-72
2022/11/22 05:43:48;;;;;;;12.47;6.33;;;3.80;99.90;;;;;;5053058;28;20249;-73
2022/11/22 05:46:17;;;;;;;8.63;6.47;;;3.70;99.90;;;;;;5053016;28;20252;-73
2022/11/22 05:48:46;;;;;;;8.70;5.40;;;3.70;99.90;;;;;;5053009;28;20199;-72
2022/11/22 05:51:14;;;;;;;9.53;6.20;;;3.70;99.90;;;;;;5053436;28;20224;-72
2022/11/22 05:53:42;;;;;;;11.20;5.80;;;3.80;99.90;;;;;;5053468;28;20194;-72
2022/11/22 05:56:09;;;;;;;10.57;6.23;;;3.70;99.90;;;;;;5053332;28;20198;-72
2022/11/22 05:58:36;;;;;;;8.10;6.00;;;3.60;99.90;;;;;;5053458;28;20252;-72
2022/11/22 06:01:04;;;;;;;15.80;11.63;;;3.50;99.90;;;;;;5053548;28;20205;-72
2022/11/22 06:03:31;;;;;;;12.07;7.77;;;3.40;99.90;;;;;;5055718;28;20206;-72
2022/11/22 06:05:59;;;;;;;8.63;6.90;;;3.50;99.90;;;;;;5059005;28;20201;-72
2022/11/22 06:08:25;;;;;;;9.73;6.70;;;3.50;99.90;;;;;;5059725;28;20254;-72
2022/11/22 06:10:52;;;;;;;13.43;6.33;;;3.50;99.90;;;;;;5056008;28;20227;-72
2022/11/22 06:13:19;;;;;;;13.30;7.17;;;3.50;99.90;;;;;;5053987;28;20256;-72
2022/11/22 06:15:46;;;;;;;9.23;7.33;;;3.40;99.90;;;;;;5053327;28;20194;-72
2022/11/22 06:18:12;;;;;;;13.07;9.60;;;3.30;99.90;;;;;;5053251;28;20268;-72
2022/11/22 06:20:39;;;;;;;10.83;7.07;;;3.20;99.90;;;;;;5053313;28;20229;-72
2022/11/22 06:23:07;;;;;;;11.97;6.90;;;3.20;99.90;;;;;;5053536;28;20199;-71
2022/11/22 06:25:33;;;;;;;14.83;8.30;;;3.10;99.90;;;;;;5053299;28;20601;-72
2022/11/22 06:28:00;;;;;;;14.40;8.03;;;3.30;99.90;;;;;;5056995;28;20194;-72
2022/11/22 06:30:27;;;;;;;10.23;7.73;;;3.40;99.90;;;;;;5055811;28;20268;-71
2022/11/22 06:32:53;;;;;;;10.63;7.77;;;3.40;99.90;;;;;;5056243;28;20202;-72
2022/11/22 06:35:20;;;;;;;10.77;7.43;;;3.40;99.90;;;;;;5056060;28;20616;-72
2022/11/22 06:37:48;;;;;;;13.10;7.77;;;3.40;99.90;;;;;;5055779;28;20203;-72
2022/11/22 06:40:17;;;;;;;10.40;6.80;;;3.50;99.90;;;;;;5055458;28;20653;-72
2022/11/22 06:42:44;;;;;;;14.30;9.07;;;3.70;99.90;;;;;;5053688;28;20629;-72
2022/11/22 06:45:11;;;;;;;17.53;7.93;;;3.70;99.90;;;;;;5054021;28;20225;-73
2022/11/22 06:47:38;;;;;;;14.10;8.77;;;3.70;99.90;;;;;;5054226;28;20199;-73
2022/11/22 06:50:05;;;;;;;12.97;7.77;;;3.70;99.90;;;;;;5056966;28;20280;-72
2022/11/22 06:52:32;;;;;;;14.87;8.50;;;3.70;99.90;;;;;;5057396;28;20198;-73
2022/11/22 06:54:58;;;;;;;10.97;7.60;;;3.70;99.90;;;;;;5057446;28;20205;-73
2022/11/22 06:57:26;;;;;;;13.53;7.30;;;3.80;99.90;;;;;;5056391;28;20278;-73
2022/11/22 06:59:53;;;;;;;16.60;10.17;;;3.80;99.90;;;;;;5056170;28;20198;-72
2022/11/22 07:02:20;;;;;;;14.70;7.53;;;3.90;99.90;;;;;;5056438;28;20203;-73
2022/11/22 07:04:47;;;;;;;16.13;7.90;;;3.90;99.90;;;;;;5056567;28;20358;-72
2022/11/22 07:07:14;;;;;;;13.50;8.10;;;4.00;99.90;;;;;;5056165;28;20253;-73
2022/11/22 07:09:40;;;;;;;17.70;8.53;;;4.00;99.90;;;;;;5055801;28;20228;-72
2022/11/22 07:12:07;;;;;;;16.87;9.37;;;4.10;99.90;;;;;;5055718;28;20202;-73
2022/11/22 07:14:36;;;;;;;14.87;8.70;;;4.00;99.90;;;;;;5055649;28;20204;-73
2022/11/22 07:17:02;;;;;;;16.53;8.77;;;4.00;99.90;;;;;;5055773;28;20206;-73
2022/11/22 07:19:29;;;;;;;13.57;8.77;;;4.00;99.90;;;;;;5055712;28;20205;-73
2022/11/22 07:21:56;;;;;;;24.27;11.27;;;4.00;99.90;;;;;;5055625;28;20617;-73
2022/11/22 07:24:22;;;;;;;26.30;14.13;;;4.00;99.90;;;;;;5055564;28;20204;-73
2022/11/22 07:26:49;;;;;;;18.70;10.00;;;4.00;99.90;;;;;;5055387;28;20209;-73
2022/11/22 07:29:15;;;;;;;16.57;7.20;;;4.00;99.90;;;;;;5055249;28;20211;-73
2022/11/22 07:31:46;;;;;;;34.93;18.93;;;4.10;99.90;;;;;;5055496;28;20232;-73
2022/11/22 07:34:13;;;;;;;18.20;7.90;;;4.20;99.90;;;;;;5055847;28;20295;-73
2022/11/22 07:36:39;;;;;;;20.40;8.67;;;4.30;99.90;;;;;;5055562;28;20652;-73
2022/11/22 07:39:06;;;;;;;18.27;8.00;;;4.30;99.90;;;;;;5055474;28;20263;-74
2022/11/22 07:41:33;;;;;;;22.60;11.97;;;4.40;99.90;;;;;;5055276;28;20200;-74
2022/11/22 07:43:59;;;;;;;12.70;6.90;;;4.50;99.90;;;;;;5055736;28;20204;-73
2022/11/22 07:46:29;;;;;;;14.70;6.93;;;4.60;99.90;;;;;;5055748;28;20243;-74
2022/11/22 07:48:57;;;;;;;15.90;6.50;;;4.60;99.90;;;;;;5055634;28;20254;-73
2022/11/22 07:51:24;;;;;;;15.03;7.33;;;4.70;99.90;;;;;;5055408;28;20271;-73
2022/11/22 07:53:51;;;;;;;16.07;6.00;;;4.80;99.90;;;;;;5055141;28;20204;-73
2022/11/22 07:56:18;;;;;;;11.73;5.30;;;4.90;99.90;;;;;;5055321;28;20198;-73
2022/11/22 07:58:45;;;;;;;14.17;5.47;;;5.00;99.90;;;;;;5055440;28;20205;-73
2022/11/22 08:01:15;;;;;;;23.80;10.50;;;5.10;99.90;;;;;;5055326;28;20196;-73
2022/11/22 08:03:42;;;;;;;20.57;11.13;;;5.10;99.90;;;;;;5054768;28;20205;-73
2022/11/22 08:06:12;;;;;;;209.87;92.53;;;5.20;99.90;;;;;;5055129;28;20252;-73
2022/11/22 08:08:39;;;;;;;15.03;5.67;;;5.20;99.90;;;;;;5054521;28;20228;-73
2022/11/22 08:11:07;;;;;;;15.13;5.63;;;5.30;99.90;;;;;;5055131;28;20236;-73
2022/11/22 08:13:34;;;;;;;24.60;5.93;;;5.30;99.90;;;;;;5055139;28;20206;-73
2022/11/22 08:16:06;;;;;;;16.13;4.97;;;5.40;99.90;;;;;;5054911;28;20208;-74
2022/11/22 08:18:33;;;;;;;21.23;9.53;;;5.40;99.90;;;;;;5054875;28;20205;-73
2022/11/22 08:21:05;;;;;;;17.07;4.67;;;5.50;99.90;;;;;;5055676;28;20672;-73
2022/11/22 08:23:33;;;;;;;18.77;5.67;;;5.60;99.90;;;;;;5055066;28;20198;-73
2022/11/22 08:26:00;;;;;;;12.80;4.83;;;5.70;99.90;;;;;;5055611;28;20239;-73
2022/11/22 08:28:28;;;;;;;15.00;4.50;;;5.70;99.90;;;;;;5056490;28;20198;-73
2022/11/22 08:31:00;;;;;;;11.53;3.50;;;5.80;99.90;;;;;;5055652;28;20218;-72
2022/11/22 08:33:27;;;;;;;13.00;4.57;;;5.90;99.90;;;;;;5057455;28;20228;-73
2022/11/22 08:35:54;;;;;;;15.20;5.50;;;6.00;99.90;;;;;;5055862;28;20706;-72
2022/11/22 08:38:20;;;;;;;12.17;3.73;;;6.10;99.90;;;;;;5056752;28;20247;-72
2022/11/22 08:40:49;;;;;;;13.00;3.80;;;6.20;99.90;;;;;;5054428;28;20719;-74
2022/11/22 08:43:16;;;;;;;14.87;4.13;;;6.30;99.90;;;;;;5053955;28;20675;-72
2022/11/22 08:45:43;;;;;;;13.50;5.07;;;6.30;99.90;;;;;;5054637;28;20205;-73
2022/11/22 08:48:09;;;;;;;12.70;5.33;;;6.20;99.90;;;;;;5054275;28;20610;-73
2022/11/22 08:50:36;;;;;;;13.37;4.70;;;6.40;99.90;;;;;;5054800;28;20234;-72
2022/11/22 08:53:02;;;;;;;15.77;6.57;;;6.30;99.90;;;;;;5055694;28;20198;-73
2022/11/22 08:55:29;;;;;;;13.23;4.30;;;6.20;99.90;;;;;;5054822;28;20200;-73
2022/11/22 08:57:59;;;;;;;14.63;5.57;;;6.30;99.90;;;;;;5054895;28;20248;-72
2022/11/22 09:00:26;;;;;;;20.77;5.97;;;6.30;99.90;;;;;;5054453;28;20198;-73
2022/11/22 09:02:53;;;;;;;18.43;5.27;;;6.40;99.90;;;;;;5054835;28;20198;-73
2022/11/22 09:05:19;;;;;;;17.03;5.30;;;6.50;99.90;;;;;;5053657;28;20220;-72
2022/11/22 09:07:46;;;;;;;9.07;4.77;;;6.60;99.90;;;;;;5053461;28;20255;-72
2022/11/22 09:10:13;;;;;;;12.87;3.70;;;6.60;99.90;;;;;;5055309;28;20263;-73
2022/11/22 09:12:43;;;;;;;11.97;3.27;;;6.50;99.90;;;;;;5054573;28;20222;-73
2022/11/22 09:15:12;;;;;;;12.87;3.70;;;6.60;99.90;;;;;;5053640;28;20202;-74
2022/11/22 09:17:38;;;;;;;11.77;3.50;;;6.70;99.90;;;;;;5053774;28;20205;-73
2022/11/22 09:20:07;;;;;;;11.50;3.10;;;6.70;99.90;;;;;;5053601;28;20201;-74
2022/11/22 09:22:34;;;;;;;9.93;3.33;;;6.70;99.90;;;;;;5053618;28;20205;-72
2022/11/22 09:25:01;;;;;;;13.27;4.33;;;6.60;99.90;;;;;;5054513;28;20228;-73
2022/11/22 09:27:27;;;;;;;18.77;4.30;;;6.70;99.90;;;;;;5054290;28;20228;-73
2022/11/22 09:29:54;;;;;;;13.23;3.60;;;6.80;99.90;;;;;;5054178;28;20200;-74
2022/11/22 09:32:22;;;;;;;9.53;3.40;;;6.80;99.90;;;;;;5053359;28;20279;-73
2022/11/22 09:34:48;;;;;;;10.57;3.37;;;7.10;99.90;;;;;;5053170;28;20294;-73
2022/11/22 09:37:17;;;;;;;12.93;3.57;;;7.10;99.90;;;;;;5053199;28;20198;-73
2022/11/22 09:39:44;;;;;;;13.67;4.03;;;7.50;99.90;;;;;;5052884;28;20194;-73
2022/11/22 09:42:40;;;;;;;9.23;3.97;;;7.80;99.90;;;;;;5052833;28;20255;-74
2022/11/22 09:45:45;;;;;;;11.43;2.97;;;7.80;99.90;;;;;;5053270;28;20201;-73
2022/11/22 09:48:27;;;;;;;9.77;2.80;;;7.70;99.90;;;;;;4972183;28;20679;-73
2022/11/22 09:51:02;;;;;;;9.07;2.83;;;7.90;99.90;;;;;;5041689;28;20222;-72
2022/11/22 09:53:37;;;;;;;10.50;3.27;;;8.20;99.90;;;;;;5052821;28;20292;-73
2022/11/22 09:56:09;;;;;;;11.50;3.10;;;8.40;99.90;;;;;;5052730;28;20661;-73
2022/11/22 09:58:40;;;;;;;15.17;4.40;;;8.90;99.90;;;;;;5052780;28;20248;-73
2022/11/22 10:01:13;;;;;;;9.87;2.40;;;9.50;99.90;;;;;;5052598;28;20335;-74
2022/11/22 10:03:47;;;;;;;8.87;2.60;;;9.60;99.90;;;;;;5052725;28;20197;-73
2022/11/22 10:06:20;;;;;;;7.20;2.50;;;10.00;99.90;;;;;;5052551;28;20259;-73
2022/11/22 10:08:57;;;;;;;10.57;4.20;;;9.40;99.90;;;;;;5052598;28;20480;-74
2022/11/22 10:11:33;;;;;;;9.80;2.90;;;9.70;99.90;;;;;;5052349;28;20225;-73
2022/11/22 10:14:04;;;;;;;10.03;2.83;;;9.90;99.90;;;;;;5052532;28;20667;-73
2022/11/22 10:16:36;;;;;;;6.63;2.37;;;10.60;99.90;;;;;;5052602;28;20263;-74
2022/11/22 10:19:11;;;;;;;9.10;2.27;;;10.50;99.90;;;;;;5052479;28;20198;-72
2022/11/22 10:21:37;;;;;;;7.93;2.50;;;9.10;99.90;;;;;;5053528;28;20656;-73
2022/11/22 10:24:05;;;;;;;7.73;2.70;;;8.30;99.90;;;;;;5056428;28;20201;-74
2022/11/22 10:26:34;;;;;;;8.27;2.97;;;8.30;99.90;;;;;;5056493;28;20198;-74
2022/11/22 10:29:12;;;;;;;9.07;2.50;;;8.30;99.90;;;;;;5056305;28;20652;-73
2022/11/22 10:31:49;;;;;;;8.87;2.30;;;7.90;99.90;;;;;;5056403;28;20229;-74
2022/11/22 10:34:27;;;;;;;6.47;2.37;;;7.70;99.90;;;;;;5056772;28;20200;-74
2022/11/22 10:36:58;;;;;;;7.47;2.90;;;7.50;99.90;;;;;;5058984;28;20201;-74
2022/11/22 10:39:39;;;;;;;14.57;3.17;;;7.40;99.90;;;;;;5058755;28;20205;-74
2022/11/22 10:42:24;;;;;;;10.63;2.53;;;7.40;99.90;;;;;;5058439;28;20702;-74
2022/11/22 10:44:58;;;;;;;9.63;3.40;;;7.50;99.90;;;;;;5056081;28;20227;-73
2022/11/22 10:47:39;;;;;;;7.17;2.93;;;7.80;99.90;;;;;;5056265;28;20210;-73
2022/11/22 10:50:14;;;;;;;7.50;2.77;;;7.90;99.90;;;;;;5056082;28;20201;-74
2022/11/22 10:52:52;;;;;;;7.87;2.73;;;7.90;99.90;;;;;;5055902;28;20228;-74
2022/11/22 10:55:31;;;;;;;14.37;3.80;;;8.10;99.90;;;;;;5055801;28;20651;-73
2022/11/22 10:58:04;;;;;;;10.13;2.67;;;8.20;99.90;;;;;;5056048;28;20197;-74
2022/11/22 11:00:32;;;;;;;7.57;2.50;;;8.20;99.90;;;;;;5055885;28;20205;-73
2022/11/22 11:03:11;;;;;;;8.40;2.63;;;8.20;99.90;;;;;;5055833;28;20206;-73
2022/11/22 11:05:45;;;;;;;10.00;2.93;;;8.20;99.90;;;;;;5055763;28;20205;-74
2022/11/22 11:08:14;;;;;;;7.33;2.87;;;8.20;99.90;;;;;;5055475;28;20234;-74
2022/11/22 11:10:42;;;;;;;9.27;2.40;;;8.00;99.90;;;;;;5055781;28;20206;-73
2022/11/22 11:13:20;;;;;;;7.50;2.87;;;8.20;99.90;;;;;;5055637;28;20233;-73
2022/11/22 11:15:49;;;;;;;8.10;3.17;;;8.20;99.90;;;;;;5056047;28;20193;-74
2022/11/22 11:18:21;;;;;;;9.53;3.17;;;8.20;99.90;;;;;;5055383;28;20251;-73
2022/11/22 11:20:51;;;;;;;12.07;2.73;;;8.60;99.90;;;;;;5055440;28;20533;-74
2022/11/22 11:23:18;;;;;;;7.27;2.50;;;8.90;99.90;;;;;;5055712;28;20212;-72
2022/11/22 11:25:46;;;;;;;11.13;2.83;;;9.30;99.90;;;;;;5055271;28;20595;-72
2022/11/22 11:28:20;;;;;;;11.43;3.40;;;9.40;99.90;;;;;;5055237;28;20194;-74
2022/11/22 11:30:49;;;;;;;17.07;3.40;;;9.40;99.90;;;;;;5055069;28;20201;-74
2022/11/22 11:33:24;;;;;;;9.50;3.10;;;9.80;99.90;;;;;;5054564;28;20233;-74
2022/11/22 11:35:56;;;;;;;14.27;6.90;;;10.40;99.90;;;;;;5055187;28;20555;-72
2022/11/22 11:38:32;;;;;;;11.23;4.70;;;10.30;99.90;;;;;;5054948;28;20228;-72
2022/11/22 11:41:15;;;;;;;10.83;3.07;;;10.10;99.90;;;;;;5054942;28;20239;-72
2022/11/22 11:43:42;;;;;;;8.47;2.47;;;9.90;99.90;;;;;;5055233;28;20198;-72
2022/11/22 11:46:16;;;;;;;9.87;2.80;;;9.80;99.90;;;;;;5054927;28;20206;-72
2022/11/22 11:48:44;;;;;;;7.07;2.60;;;9.20;99.90;;;;;;5054995;28;20243;-72
2022/11/22 11:51:18;;;;;;;7.60;2.77;;;9.40;99.90;;;;;;5055050;28;20194;-72
2022/11/22 11:53:59;;;;;;;8.60;2.80;;;9.30;99.90;;;;;;5054634;28;20556;-73
2022/11/22 11:56:47;;;;;;;6.03;2.20;;;8.90;99.90;;;;;;5054636;28;20726;-73
2022/11/22 11:59:16;;;;;;;15.53;8.33;;;8.80;99.90;;;;;;5054309;28;20723;-73
2022/11/22 12:01:51;;;;;;;9.43;2.63;;;8.90;99.90;;;;;;5054314;28;20661;-73
2022/11/22 12:04:24;;;;;;;7.20;2.60;;;8.70;99.90;;;;;;5054723;28;20604;-73
2022/11/22 12:07:01;;;;;;;8.67;2.67;;;8.60;99.90;;;;;;5054403;28;20240;-73
2022/11/22 12:09:31;;;;;;;14.20;7.83;;;8.70;99.90;;;;;;5054558;28;20233;-74
2022/11/22 12:12:05;;;;;;;7.90;3.20;;;8.50;99.90;;;;;;5054298;28;20709;-74
2022/11/22 12:14:32;;;;;;;8.57;2.87;;;8.30;99.90;;;;;;5054497;28;20248;-74
2022/11/22 12:17:03;;;;;;;5.37;2.70;;;8.10;99.90;;;;;;5054283;28;20671;-75
2022/11/22 12:19:36;;;;;;;11.40;3.13;;;8.00;99.90;;;;;;5054158;28;20726;-74
2022/11/22 12:22:15;;;;;;;5.33;2.60;;;7.90;99.90;;;;;;5054198;28;20655;-74
2022/11/22 12:24:48;;;;;;;8.97;4.13;;;8.00;99.90;;;;;;5054141;28;20240;-72
2022/11/22 12:27:15;;;;;;;10.97;3.80;;;8.20;99.90;;;;;;5054339;28;20204;-72
2022/11/22 12:29:43;;;;;;;12.50;3.20;;;8.10;99.90;;;;;;5054108;28;20202;-73
2022/11/22 12:32:17;;;;;;;6.10;2.50;;;8.00;99.90;;;;;;5054061;28;20390;-72
2022/11/22 12:34:51;;;;;;;4.87;2.47;;;8.00;99.90;;;;;;5054212;28;20201;-73
2022/11/22 12:37:23;;;;;;;8.07;2.60;;;8.00;99.90;;;;;;5053919;28;20201;-74
2022/11/22 12:39:53;;;;;;;12.43;2.63;;;7.90;99.90;;;;;;5053850;28;20785;-75
2022/11/22 12:42:24;;;;;;;11.00;2.83;;;7.80;99.90;;;;;;5054158;28;20220;-75
2022/11/22 12:44:55;;;;;;;7.43;3.10;;;7.70;99.90;;;;;;5053241;28;20252;-74
2022/11/22 12:47:28;;;;;;;9.50;3.30;;;7.80;99.90;;;;;;5053834;28;20598;-74
2022/11/22 12:49:59;;;;;;;10.67;2.97;;;7.90;99.90;;;;;;5053666;28;20202;-74
2022/11/22 12:52:32;;;;;;;8.57;3.10;;;7.90;99.90;;;;;;5053735;28;20320;-74
2022/11/22 12:55:04;;;;;;;9.17;3.53;;;8.00;99.90;;;;;;5053810;28;20707;-74
2022/11/22 12:57:38;;;;;;;14.57;3.57;;;7.90;99.90;;;;;;5053751;28;20208;-74
2022/11/22 13:00:12;;;;;;;8.10;3.43;;;7.90;99.90;;;;;;5053600;28;20312;-73
2022/11/22 13:02:45;;;;;;;16.63;3.00;;;7.90;99.90;;;;;;5053551;28;20693;-74
2022/11/22 13:05:16;;;;;;;7.83;3.10;;;7.80;99.90;;;;;;5053588;28;20197;-74
2022/11/22 13:08:03;;;;;;;7.43;2.90;;;7.70;99.90;;;;;;5090382;28;20554;-74
2022/11/22 13:10:37;;;;;;;8.90;3.27;;;7.60;99.90;;;;;;5090202;28;20333;-73
2022/11/22 13:13:06;;;;;;;9.83;3.23;;;7.60;99.90;;;;;;5090447;28;20256;-74
2022/11/22 13:15:36;;;;;;;8.30;3.70;;;7.50;99.90;;;;;;5090284;28;20204;-74